Time;durP1;ratioP1;P1;durP2;ratioP2;P2;SDS_P1;SDS_P2;PMS_P1;PMS_P2;Temp;Humidity;BMP_temperature;BMP_pressure;BME280_temperature;BME280_humidity;BME280_pressure;Samples;Min_cycle;Max_cycle;Signal;HPM_P1;HPM_P2
2023/10/26 00:00:35;;;;;;;43.72;27.02;;;;;;;17.43;100.00;101059.66;5007057;28;20095;-72
2023/10/26 00:03:00;;;;;;;40.20;26.20;;;;;;;17.45;100.00;101052.72;5016206;28;20037;-71
2023/10/26 00:05:26;;;;;;;46.70;26.20;;;;;;;17.33;100.00;101026.56;5008464;28;20559;-72
2023/10/26 00:07:51;;;;;;;40.75;26.42;;;;;;;17.21;100.00;101055.31;5012001;28;20512;-72
2023/10/26 00:10:17;;;;;;;46.78;26.77;;;;;;;17.08;100.00;101033.56;5016391;28;20056;-72
2023/10/26 00:12:43;;;;;;;43.47;25.98;;;;;;;16.93;100.00;101018.72;5022657;28;20044;-72
2023/10/26 00:15:10;;;;;;;36.90;25.02;;;;;;;17.25;100.00;101092.88;5016721;28;20112;-72
2023/10/26 00:17:37;;;;;;;46.50;26.83;;;;;;;16.59;100.00;100997.72;5020459;28;20033;-71
2023/10/26 00:20:03;;;;;;;39.83;26.10;;;;;;;16.97;100.00;101069.09;5016842;28;20029;-72
2023/10/26 00:22:29;;;;;;;47.38;26.80;;;;;;;17.19;100.00;101105.13;5017951;28;20112;-72
2023/10/26 00:24:54;;;;;;;46.03;26.58;;;;;;;16.60;100.00;101071.28;5016569;28;20510;-72
2023/10/26 00:27:20;;;;;;;51.92;26.17;;;;;;;16.55;100.00;101109.16;5016630;28;20030;-72
2023/10/26 00:29:45;;;;;;;38.85;25.80;;;;;;;16.84;100.00;101173.19;5015644;28;20591;-72
2023/10/26 00:32:11;;;;;;;39.90;26.27;;;;;;;16.92;100.00;101186.59;5017506;28;20025;-72
2023/10/26 00:34:36;;;;;;;46.17;26.33;;;;;;;16.71;100.00;101158.25;5005949;28;20022;-71
2023/10/26 00:37:02;;;;;;;42.50;26.83;;;;;;;17.03;100.00;101229.94;5017755;28;20038;-72
2023/10/26 00:39:28;;;;;;;40.95;26.58;;;;;;;16.57;100.00;101170.72;5018588;28;20516;-71
2023/10/26 00:41:55;;;;;;;44.03;26.98;;;;;;;17.00;100.00;101245.44;5010980;28;20065;-71
2023/10/26 00:44:22;;;;;;;39.95;27.30;;;;;;;16.76;100.00;101213.69;5019297;28;20128;-71
2023/10/26 00:46:49;;;;;;;41.40;26.27;;;;;;;16.54;100.00;101214.47;5014443;28;20492;-71
2023/10/26 00:49:15;;;;;;;42.42;27.15;;;;;;;16.92;100.00;101302.22;5005656;28;20021;-71
2023/10/26 00:51:46;;;;;;;46.90;26.65;;;;;;;16.72;100.00;101288.38;5019606;28;20021;-71
2023/10/26 00:54:12;;;;;;;44.17;26.80;;;;;;;16.56;100.00;101259.72;5013549;28;20029;-71
2023/10/26 00:56:38;;;;;;;41.92;26.75;;;;;;;16.75;100.00;101281.38;5015236;28;20033;-71
2023/10/26 00:59:04;;;;;;;42.58;27.25;;;;;;;16.73;100.00;101293.44;5017598;28;20079;-71
2023/10/26 01:01:30;;;;;;;47.97;26.95;;;;;;;15.81;100.00;101195.34;5015862;28;20056;-70
2023/10/26 01:03:56;;;;;;;44.22;27.58;;;;;;;16.57;100.00;101330.75;5020132;28;20467;-71
2023/10/26 01:06:22;;;;;;;44.35;28.35;;;;;;;16.46;100.00;101331.06;5016456;28;20488;-72
2023/10/26 01:08:48;;;;;;;41.28;27.63;;;;;;;15.92;100.00;101262.56;5016502;28;20033;-71
2023/10/26 01:11:14;;;;;;;44.67;28.20;;;;;;;15.84;100.00;101293.56;5011368;28;20041;-71
2023/10/26 01:13:40;;;;;;;44.03;27.73;;;;;;;15.90;100.00;101301.09;5022886;28;20420;-71
2023/10/26 01:16:06;;;;;;;39.58;26.23;;;;;;;15.95;100.00;101314.63;5023703;28;20068;-72
2023/10/26 01:18:32;;;;;;;41.75;26.10;;;;;;;15.89;100.00;101301.97;5020832;28;20057;-71
2023/10/26 01:20:57;;;;;;;44.13;28.17;;;;;;;15.96;100.00;101282.13;5011177;28;20529;-72
2023/10/26 01:23:23;;;;;;;42.78;26.88;;;;;;;15.91;100.00;101258.31;5021698;28;20493;-72
2023/10/26 01:25:54;;;;;;;43.30;26.70;;;;;;;15.88;100.00;101227.63;5009379;28;20034;-71
2023/10/26 01:28:19;;;;;;;49.75;26.45;;;;;;;15.44;100.00;101183.63;5023657;28;21463;-72
2023/10/26 01:30:45;;;;;;;41.58;25.77;;;;;;;16.04;100.00;101257.09;5018261;28;20041;-70
2023/10/26 01:33:10;;;;;;;43.38;26.15;;;;;;;16.09;100.00;101248.34;5017616;28;20025;-72
2023/10/26 01:35:38;;;;;;;43.08;26.77;;;;;;;15.93;100.00;101246.28;5023988;28;20033;-73
2023/10/26 01:38:04;;;;;;;43.67;24.65;;;;;;;15.87;100.00;101254.16;5026539;28;20061;-73
2023/10/26 01:40:30;;;;;;;39.50;22.17;;;;;;;15.32;100.00;101201.00;5019938;28;20026;-75
2023/10/26 01:42:55;;;;;;;38.80;23.48;;;;;;;15.92;100.00;101298.47;5017396;28;20041;-74
2023/10/26 01:45:21;;;;;;;38.90;22.92;;;;;;;15.76;100.00;101249.34;5024659;28;20393;-73
2023/10/26 01:47:46;;;;;;;41.22;23.35;;;;;;;16.00;100.00;101289.69;5009088;28;20029;-73
2023/10/26 01:50:11;;;;;;;41.50;23.20;;;;;;;15.92;100.00;101285.66;5011017;28;20033;-74
2023/10/26 01:52:37;;;;;;;40.50;22.75;;;;;;;15.77;100.00;101278.41;5018276;28;20116;-74
2023/10/26 01:55:02;;;;;;;39.00;22.50;;;;;;;15.73;100.00;101271.69;5020837;28;20033;-74
2023/10/26 01:57:28;;;;;;;38.63;24.00;;;;;;;15.34;100.00;101246.22;5010650;28;20029;-74
2023/10/26 01:59:55;;;;;;;42.15;24.92;;;;;;;15.80;100.00;101332.16;5024153;28;20422;-73
2023/10/26 02:02:22;;;;;;;41.03;24.60;;;;;;;15.29;100.00;101250.63;5022717;28;20061;-74
2023/10/26 02:04:47;;;;;;;51.45;28.05;;;;;;;15.72;100.00;101360.59;5021755;28;20033;-74
2023/10/26 02:07:13;;;;;;;46.75;26.80;;;;;;;15.74;100.00;101363.94;5027049;28;20490;-74
2023/10/26 02:09:38;;;;;;;44.33;27.13;;;;;;;15.38;100.00;101318.75;5019871;28;20057;-74
2023/10/26 02:12:04;;;;;;;44.33;25.58;;;;;;;14.99;100.00;101271.09;5019379;28;20497;-74
2023/10/26 02:14:29;;;;;;;43.92;26.23;;;;;;;15.75;100.00;101411.78;5021098;28;20106;-74
2023/10/26 02:16:55;;;;;;;47.67;26.63;;;;;;;15.75;100.00;101393.00;5017785;28;20030;-74
2023/10/26 02:19:20;;;;;;;43.03;26.95;;;;;;;15.97;100.00;101438.56;5022487;28;20083;-73
2023/10/26 02:21:46;;;;;;;42.58;27.45;;;;;;;15.45;100.00;101369.81;5022081;28;20033;-73
2023/10/26 02:24:11;;;;;;;48.13;26.65;;;;;;;15.71;100.00;101437.56;5021585;28;20026;-74
2023/10/26 02:26:37;;;;;;;48.88;26.35;;;;;;;15.73;100.00;101459.69;5024675;28;20108;-74
2023/10/26 02:29:02;;;;;;;42.65;26.52;;;;;;;15.76;100.00;101472.47;5020112;28;20041;-74
2023/10/26 02:31:27;;;;;;;42.78;24.58;;;;;;;15.30;100.00;101433.41;5021551;28;20025;-71
2023/10/26 02:33:53;;;;;;;38.22;23.33;;;;;;;15.39;100.00;101453.72;5012844;28;20520;-73
2023/10/26 02:36:18;;;;;;;40.90;23.42;;;;;;;15.38;100.00;101458.00;5010179;28;20037;-73
2023/10/26 02:38:44;;;;;;;44.00;23.77;;;;;;;14.84;100.00;101379.84;5025101;28;20045;-74
2023/10/26 02:41:09;;;;;;;39.17;23.33;;;;;;;15.32;100.00;101468.38;5010257;28;20507;-75
2023/10/26 02:43:34;;;;;;;41.47;23.55;;;;;;;14.98;100.00;101395.75;5017246;28;20038;-74
2023/10/26 02:46:02;;;;;;;41.05;23.33;;;;;;;14.94;100.00;101388.16;5016472;28;20037;-73
2023/10/26 02:48:27;;;;;;;39.40;24.38;;;;;;;15.34;100.00;101465.78;5021988;28;20108;-73
2023/10/26 02:50:52;;;;;;;38.00;23.77;;;;;;;15.13;100.00;101433.78;5018989;28;20132;-73
2023/10/26 02:53:18;;;;;;;37.60;23.35;;;;;;;15.18;100.00;101467.00;5016278;28;20030;-74
2023/10/26 02:55:43;;;;;;;40.05;24.88;;;;;;;14.90;100.00;101417.28;5018535;28;20480;-73
2023/10/26 02:58:09;;;;;;;43.33;24.48;;;;;;;14.81;100.00;101426.03;5011115;28;20036;-71
2023/10/26 03:00:34;;;;;;;42.70;25.30;;;;;;;14.93;100.00;101448.81;5019681;28;20033;-72
2023/10/26 03:02:59;;;;;;;38.60;23.38;;;;;;;15.36;100.00;101540.91;5007678;28;20061;-72
2023/10/26 03:05:25;;;;;;;40.72;25.50;;;;;;;15.19;100.00;101502.84;5008577;28;20041;-74
2023/10/26 03:07:52;;;;;;;38.15;24.60;;;;;;;15.49;100.00;101560.28;5020209;28;20579;-74
2023/10/26 03:10:17;;;;;;;49.58;25.83;;;;;;;15.38;100.00;101542.56;5016804;28;20036;-73
2023/10/26 03:12:45;;;;;;;42.03;25.25;;;;;;;14.82;100.00;101466.09;5016961;28;20053;-73
2023/10/26 03:15:10;;;;;;;41.88;26.08;;;;;;;15.12;100.00;101536.31;5009289;28;20124;-71
2023/10/26 03:17:36;;;;;;;43.47;26.20;;;;;;;15.31;100.00;101578.63;5008757;28;20420;-70
2023/10/26 03:20:01;;;;;;;45.83;26.45;;;;;;;15.30;100.00;101595.72;5016348;28;20026;-71
2023/10/26 03:22:27;;;;;;;42.97;26.02;;;;;;;15.30;100.00;101611.09;5016314;28;20034;-71
2023/10/26 03:24:52;;;;;;;45.15;26.58;;;;;;;15.22;100.00;101619.81;5018730;28;20060;-71
2023/10/26 03:27:18;;;;;;;39.70;25.83;;;;;;;15.24;100.00;101631.72;5014848;28;20026;-70
2023/10/26 03:29:43;;;;;;;43.00;26.45;;;;;;;15.17;100.00;101637.81;5016185;28;20038;-71
2023/10/26 03:32:08;;;;;;;46.58;26.38;;;;;;;15.61;100.00;101706.16;5008156;28;20039;-72
2023/10/26 03:34:35;;;;;;;41.35;27.35;;;;;;;15.05;100.00;101648.34;5019399;28;20030;-72
2023/10/26 03:37:00;;;;;;;42.17;27.08;;;;;;;14.84;100.00;101622.28;5010855;28;20042;-72
2023/10/26 03:39:25;;;;;;;48.33;27.55;;;;;;;14.85;100.00;101639.34;5016706;28;20040;-73
2023/10/26 03:41:51;;;;;;;45.08;27.13;;;;;;;15.03;100.00;101691.09;5016374;28;20037;-72
2023/10/26 03:44:16;;;;;;;39.90;26.45;;;;;;;15.27;100.00;101731.59;5022346;28;20099;-72
2023/10/26 03:46:42;;;;;;;42.92;27.70;;;;;;;14.96;100.00;101699.72;5011539;28;20139;-72
2023/10/26 03:49:07;;;;;;;50.38;31.42;;;;;;;14.74;100.00;101671.09;5016703;28;20483;-71
2023/10/26 03:51:32;;;;;;;49.65;32.20;;;;;;;15.13;100.00;101748.94;5019404;28;20497;-73
2023/10/26 03:53:58;;;;;;;49.28;30.30;;;;;;;15.12;100.00;101765.19;5016885;28;20038;-72
2023/10/26 03:56:23;;;;;;;48.60;30.10;;;;;;;15.15;100.00;101783.06;5017752;28;20040;-72
2023/10/26 03:58:49;;;;;;;45.55;28.40;;;;;;;15.01;100.00;101804.69;5015972;28;20022;-70
2023/10/26 04:01:14;;;;;;;32.70;22.50;;;;;;;16.20;100.00;101877.66;5014937;28;20036;-71
2023/10/26 04:03:39;;;;;;;44.65;28.35;;;;;;;15.54;100.00;101863.56;5016047;28;20512;-71
2023/10/26 04:06:05;;;;;;;47.72;30.65;;;;;;;15.22;100.00;101824.81;5016215;28;20032;-70
2023/10/26 04:08:30;;;;;;;47.75;33.25;;;;;;;14.65;100.00;101772.84;5011085;28;20428;-70
2023/10/26 04:10:56;;;;;;;45.38;29.27;;;;;;;14.92;100.00;101836.41;5009109;28;20416;-70
2023/10/26 04:13:21;;;;;;;52.08;28.80;;;;;;;14.36;100.00;101824.44;5020612;28;20041;-70
2023/10/26 04:15:48;;;;;;;49.03;27.55;;;;;;;13.81;100.00;101752.69;5018775;28;20033;-70
2023/10/26 04:18:14;;;;;;;52.33;26.02;;;;;;;15.18;100.00;101893.22;5016064;28;20556;-71
2023/10/26 04:20:39;;;;;;;52.33;26.52;;;;;;;14.53;100.00;101842.13;5015593;28;20030;-70
2023/10/26 04:23:04;;;;;;;47.65;26.67;;;;;;;14.31;100.00;101762.25;5020270;28;20168;-70
2023/10/26 04:25:30;;;;;;;50.45;29.38;;;;;;;14.55;100.00;101795.19;5006784;28;20428;-70
2023/10/26 04:27:55;;;;;;;45.58;29.30;;;;;;;14.73;100.00;101791.47;5014437;28;20046;-70
2023/10/26 04:30:21;;;;;;;54.53;30.42;;;;;;;14.61;100.00;101730.22;5015762;28;20129;-70
2023/10/26 04:32:47;;;;;;;47.65;28.25;;;;;;;15.01;100.00;101764.56;5016917;28;20474;-69
2023/10/26 04:35:12;;;;;;;66.47;30.30;;;;;;;14.56;100.00;101670.56;5018013;28;20125;-69
2023/10/26 04:37:37;;;;;;;45.58;29.05;;;;;;;15.03;100.00;101726.94;5015018;28;20036;-71
2023/10/26 04:40:03;;;;;;;47.95;28.05;;;;;;;15.20;100.00;101716.38;5015759;28;20394;-71
2023/10/26 04:42:29;;;;;;;50.10;26.58;;;;;;;16.56;100.00;101793.06;5016598;28;20037;-70
2023/10/26 04:44:54;;;;;;;44.40;28.15;;;;;;;14.88;100.00;101642.69;5005266;28;20036;-71
2023/10/26 04:47:20;;;;;;;53.45;28.25;;;;;;;14.44;100.00;101651.16;5012689;28;20034;-70
2023/10/26 04:49:45;;;;;;;41.03;28.75;;;;;;;14.61;100.00;101704.63;5020214;28;20120;-70
2023/10/26 04:52:15;;;;;;;49.88;29.05;;;;;;;14.75;100.00;101753.91;5018097;28;20596;-70
2023/10/26 04:54:40;;;;;;;44.65;28.08;;;;;;;14.59;100.00;101760.97;5011171;28;20033;-70
2023/10/26 04:57:06;;;;;;;48.28;28.20;;;;;;;14.67;100.00;101828.28;5004844;28;20037;-70
2023/10/26 04:59:31;;;;;;;48.45;28.63;;;;;;;14.30;100.00;101769.97;5016384;28;20545;-70
2023/10/26 05:01:57;;;;;;;45.15;27.52;;;;;;;14.89;100.00;101859.53;5020603;28;20030;-70
2023/10/26 05:04:22;;;;;;;47.78;26.95;;;;;;;14.98;100.00;101892.66;5010974;28;20026;-70
2023/10/26 05:06:47;;;;;;;50.55;27.33;;;;;;;14.81;100.00;101863.91;5014134;28;20475;-70
2023/10/26 05:09:13;;;;;;;51.25;27.92;;;;;;;14.74;100.00;101837.53;5019716;28;20029;-70
2023/10/26 05:11:38;;;;;;;49.78;28.55;;;;;;;15.27;100.00;101908.44;5006854;28;20029;-71
2023/10/26 05:14:06;;;;;;;44.72;27.83;;;;;;;14.96;100.00;101868.78;5015348;28;20059;-70
2023/10/26 05:16:31;;;;;;;48.83;28.85;;;;;;;14.89;100.00;101861.22;5014332;28;20034;-70
2023/10/26 05:18:57;;;;;;;51.22;29.60;;;;;;;15.09;100.00;101902.75;5011307;28;20514;-70
2023/10/26 05:21:22;;;;;;;53.38;30.75;;;;;;;15.03;100.00;101883.22;5015951;28;20468;-70
2023/10/26 05:23:47;;;;;;;72.20;47.30;;;;;;;15.28;100.00;101917.81;5016703;28;20038;-71
2023/10/26 05:26:13;;;;;;;55.63;38.20;;;;;;;15.06;100.00;101885.72;5011192;28;20041;-71
2023/10/26 05:28:38;;;;;;;52.78;32.08;;;;;;;15.35;100.00;101928.84;5019320;28;20492;-70
2023/10/26 05:31:04;;;;;;;60.92;32.78;;;;;;;15.36;100.00;101966.41;5010710;28;20041;-70
2023/10/26 05:33:29;;;;;;;51.30;30.80;;;;;;;15.32;100.00;101951.94;5018331;28;20527;-70
2023/10/26 05:35:54;;;;;;;45.67;30.90;;;;;;;15.41;100.00;101991.09;5017105;28;20408;-70
2023/10/26 05:38:21;;;;;;;50.88;31.35;;;;;;;15.65;100.00;102027.53;5006500;28;20025;-71
2023/10/26 05:40:52;;;;;;;50.80;30.00;;;;;;;15.39;100.00;101981.75;5019978;28;20021;-71
2023/10/26 05:43:17;;;;;;;53.88;29.50;;;;;;;16.12;100.00;102071.19;5015041;28;20049;-71
2023/10/26 05:45:43;;;;;;;55.17;30.02;;;;;;;18.19;100.00;102101.09;5012394;28;20504;-71
2023/10/26 05:48:10;;;;;;;48.22;29.48;;;;;;;16.83;100.00;101844.63;5014516;28;20052;-71
2023/10/26 05:50:40;;;;;;;55.63;30.38;;;;;;;16.38;100.00;101753.22;5005309;28;20061;-71
2023/10/26 05:53:06;;;;;;;52.05;31.20;;;;;;;16.51;100.00;101751.22;5008099;28;20056;-71
2023/10/26 05:55:31;;;;;;;63.42;37.67;;;;;;;15.90;100.00;101655.09;5020390;28;20061;-71
2023/10/26 05:57:57;;;;;;;57.80;34.25;;;;;;;16.04;100.00;101706.94;5015033;28;20416;-70
2023/10/26 06:00:22;;;;;;;57.10;34.30;;;;;;;15.45;100.00;101646.69;5020982;28;20096;-71
2023/10/26 06:02:48;;;;;;;59.35;32.95;;;;;;;16.02;100.00;101720.69;5018856;28;20084;-70
2023/10/26 06:05:13;;;;;;;58.33;30.20;;;;;;;18.07;100.00;101787.28;5017995;28;20044;-71
2023/10/26 06:07:39;;;;;;;49.95;29.85;;;;;;;20.25;100.00;101768.59;5016952;28;20034;-74
2023/10/26 06:10:05;;;;;;;67.90;30.98;;;;;;;20.78;100.00;101455.31;5019763;28;20552;-71
2023/10/26 06:12:31;;;;;;;60.47;31.90;;;;;;;19.91;100.00;101111.53;5009109;28;20037;-71
2023/10/26 06:14:56;;;;;;;54.60;32.05;;;;;;;17.87;100.00;100953.25;5019059;28;20440;-71
2023/10/26 06:17:21;;;;;;;51.22;31.13;;;;;;;16.97;100.00;100902.09;5010225;28;20090;-70
2023/10/26 06:19:47;;;;;;;56.70;31.00;;;;;;;17.23;100.00;100937.03;5017407;28;20100;-70
2023/10/26 06:22:12;;;;;;;54.50;30.63;;;;;;;17.25;100.00;100937.81;5018113;28;20113;-71
2023/10/26 06:24:38;;;;;;;56.65;31.70;;;;;;;17.03;100.00;100932.69;5009419;28;20061;-71
2023/10/26 06:27:04;;;;;;;52.30;31.48;;;;;;;17.45;100.00;101006.44;5021335;28;20026;-71
2023/10/26 06:29:29;;;;;;;60.33;31.67;;;;;;;18.10;100.00;101049.19;5014729;28;20510;-71
2023/10/26 06:31:54;;;;;;;51.33;29.38;;;;;;;18.11;100.00;101026.84;5015370;28;20034;-71
2023/10/26 06:34:20;;;;;;;53.05;30.33;;;;;;;18.28;100.00;101008.97;5019990;28;20041;-71
2023/10/26 06:36:45;;;;;;;50.65;29.25;;;;;;;18.35;100.00;101022.41;5018410;28;20040;-70
2023/10/26 06:39:11;;;;;;;47.70;28.20;;;;;;;17.68;100.00;100948.06;5020685;28;20029;-70
2023/10/26 06:41:36;;;;;;;52.35;28.70;;;;;;;17.86;100.00;100978.16;5019945;28;20033;-70
2023/10/26 06:44:02;;;;;;;56.15;30.85;;;;;;;18.26;100.00;101003.06;5009438;28;20377;-69
2023/10/26 06:46:27;;;;;;;58.28;43.67;;;;;;;19.19;100.00;101087.38;5021026;28;20060;-69
2023/10/26 06:48:54;;;;;;;68.15;46.55;;;;;;;18.85;100.00;101055.41;5020419;28;20037;-69
2023/10/26 06:51:19;;;;;;;52.67;31.83;;;;;;;19.16;100.00;101049.69;5012705;28;20057;-69
2023/10/26 06:53:45;;;;;;;51.72;29.23;;;;;;;19.23;100.00;101037.34;5015172;28;20025;-69
2023/10/26 06:56:11;;;;;;;42.90;27.75;;;;;;;19.12;100.00;101009.47;5007082;28;20040;-69
2023/10/26 06:58:37;;;;;;;48.65;28.95;;;;;;;19.05;100.00;101042.44;5017731;28;20493;-69
2023/10/26 07:01:07;;;;;;;48.28;28.92;;;;;;;18.96;100.00;101016.22;5009552;28;20037;-69
2023/10/26 07:03:32;;;;;;;44.25;27.70;;;;;;;18.61;100.00;101017.84;5014934;28;20592;-70
2023/10/26 07:06:02;;;;;;;44.70;26.42;;;;;;;18.59;100.00;101058.28;5009849;28;20041;-70
2023/10/26 07:08:28;;;;;;;45.60;26.52;;;;;;;18.45;100.00;101112.13;5022748;28;20041;-70
2023/10/26 07:10:54;;;;;;;41.40;25.73;;;;;;;18.60;100.00;101137.22;5018524;28;20409;-71
2023/10/26 07:13:20;;;;;;;43.28;27.23;;;;;;;18.88;100.00;101199.59;5019153;28;22078;-70
2023/10/26 07:15:45;;;;;;;46.45;25.75;;;;;;;19.19;100.00;101236.97;5010130;28;20033;-70
2023/10/26 07:18:12;;;;;;;43.75;26.45;;;;;;;19.01;100.00;101161.25;5014541;28;20037;-70
2023/10/26 07:20:38;;;;;;;43.13;26.58;;;;;;;19.35;100.00;101179.47;5023371;28;20033;-71
2023/10/26 07:23:03;;;;;;;45.75;25.83;;;;;;;19.97;100.00;101219.66;5007768;28;20041;-69
2023/10/26 07:25:29;;;;;;;44.78;26.48;;;;;;;20.42;100.00;101174.41;5018619;28;20128;-70
2023/10/26 07:27:54;;;;;;;42.30;27.05;;;;;;;19.97;100.00;101037.16;5014301;28;20108;-70
2023/10/26 07:30:20;;;;;;;46.70;26.70;;;;;;;20.09;100.00;100972.00;5012764;28;20041;-70
2023/10/26 07:32:46;;;;;;;39.70;24.77;;;;;;;20.23;100.00;100948.91;5008516;28;20393;-70
2023/10/26 07:35:14;;;;;;;47.97;25.15;;;;;;;20.43;100.00;100920.28;5015794;28;20045;-70
2023/10/26 07:37:40;;;;;;;48.55;24.92;;;;;;;20.60;100.00;100896.94;5007813;28;20030;-70
2023/10/26 07:40:07;;;;;;;38.53;23.25;;;;;;;21.08;100.00;100887.41;5009287;28;20040;-70
2023/10/26 07:42:32;;;;;;;35.30;20.38;;;;;;;20.81;100.00;100876.00;5010280;28;20108;-69
2023/10/26 07:44:58;;;;;;;35.00;22.48;;;;;;;21.19;100.00;100848.84;5009763;28;20025;-70
2023/10/26 07:47:23;;;;;;;40.00;22.67;;;;;;;21.16;100.00;100784.34;5016853;28;20041;-70
2023/10/26 07:49:49;;;;;;;48.50;23.30;;;;;;;20.88;100.00;100745.50;5009055;28;20554;-70
2023/10/26 07:52:15;;;;;;;40.85;21.75;;;;;;;21.36;100.00;100784.00;5019344;28;20025;-70
2023/10/26 07:54:40;;;;;;;32.30;17.15;;;;;;;21.18;100.00;100729.00;5007171;28;20180;-71
2023/10/26 07:57:05;;;;;;;30.73;17.05;;;;;;;21.50;100.00;100720.16;5012126;28;20030;-70
2023/10/26 07:59:31;;;;;;;41.70;18.80;;;;;;;22.21;100.00;100758.88;5020345;28;20493;-70
2023/10/26 08:01:56;;;;;;;33.17;15.13;;;;;;;21.73;100.00;100648.00;5017105;28;20033;-70
2023/10/26 08:04:22;;;;;;;28.42;15.18;;;;;;;22.61;100.00;100720.88;5008649;28;20033;-71
2023/10/26 08:06:47;;;;;;;29.27;13.70;;;;;;;22.22;100.00;100631.81;5007064;28;20029;-70
2023/10/26 08:09:12;;;;;;;25.52;13.20;;;;;;;21.75;100.00;100685.78;5016085;28;20041;-69
2023/10/26 08:11:39;;;;;;;28.85;12.80;;;;;;;22.18;100.00;100677.00;5015608;28;20033;-70
2023/10/26 08:14:05;;;;;;;24.85;12.93;;;;;;;22.36;100.00;100639.50;5013130;28;20063;-70
2023/10/26 08:16:30;;;;;;;27.95;13.70;;;;;;;22.22;100.00;100615.44;5017827;28;20416;-72
2023/10/26 08:18:56;;;;;;;38.22;14.90;;;;;;;21.65;100.00;100591.50;5015928;28;20037;-71
2023/10/26 08:21:21;;;;;;;40.15;14.98;;;;;;;21.97;100.00;100665.41;5017730;28;20033;-72
2023/10/26 08:23:47;;;;;;;24.92;12.70;;;;;;;21.58;100.00;100676.50;5014914;28;20039;-71
2023/10/26 08:26:12;;;;;;;23.92;12.05;;;;;;;21.58;100.00;100660.13;5013073;28;20117;-70
2023/10/26 08:28:38;;;;;;;31.52;13.73;;;;;;;21.60;100.00;100723.00;5024751;28;20029;-70
2023/10/26 08:31:06;;;;;;;26.33;12.38;;;;;;;21.50;100.00;100693.44;5020286;28;20037;-70
2023/10/26 08:33:33;;;;;;;22.13;12.32;;;;;;;21.86;100.00;100773.22;5018003;28;20108;-71
2023/10/26 08:35:59;;;;;;;30.52;12.45;;;;;;;21.90;100.00;100778.13;5017735;28;20160;-72
2023/10/26 08:38:25;;;;;;;26.73;12.40;;;;;;;21.56;100.00;100718.94;5008282;28;20112;-71
2023/10/26 08:40:51;;;;;;;27.17;12.07;;;;;;;21.80;100.00;100773.56;5019683;28;20032;-71
2023/10/26 08:43:18;;;;;;;28.58;12.25;;;;;;;21.66;100.00;100751.09;5008735;28;20030;-71
2023/10/26 08:45:44;;;;;;;29.60;12.32;;;;;;;21.68;100.00;100757.00;5005580;28;21487;-70
2023/10/26 08:48:18;;;;;;;24.85;12.80;;;;;;;21.65;100.00;100738.25;5012653;28;20025;-70
2023/10/26 08:50:48;;;;;;;20.80;12.02;;;;;;;21.72;100.00;100760.25;5014165;28;20029;-69
2023/10/26 08:53:14;;;;;;;25.02;12.45;;;;;;;21.69;100.00;100761.25;5005695;28;20038;-70
2023/10/26 08:55:42;;;;;;;25.08;11.13;;;;;;;21.37;100.00;100695.94;5016013;28;20049;-71
2023/10/26 08:58:08;;;;;;;30.45;12.20;;;;;;;21.88;100.00;100761.84;5018979;28;20026;-72
2023/10/26 09:00:38;;;;;;;25.88;11.52;;;;;;;21.60;100.00;100699.72;5006898;28;20434;-70
2023/10/26 09:03:04;;;;;;;19.90;10.13;;;;;;;21.53;100.00;100678.53;5020472;28;20527;-71
2023/10/26 09:05:29;;;;;;;25.33;11.07;;;;;;;22.26;100.00;100708.41;5011195;28;20087;-70
2023/10/26 09:07:55;;;;;;;25.48;11.15;;;;;;;22.65;100.00;100639.38;5017225;28;20411;-70
2023/10/26 09:10:33;;;;;;;26.17;10.57;;;;;;;23.18;100.00;100593.25;5018365;28;20029;-70
2023/10/26 09:13:04;;;;;;;24.30;10.70;;;;;;;22.64;100.00;100544.38;5013465;28;20061;-70
2023/10/26 09:15:30;;;;;;;;;;;;;;;22.85;100.00;100556.69;5006087;28;20125;-70
2023/10/26 09:18:00;;;;;;;23.17;10.55;;;;;;;22.63;100.00;100555.69;5004519;28;20009;-71
2023/10/26 09:20:26;;;;;;;23.40;10.70;;;;;;;22.52;100.00;100533.06;5006935;28;20045;-73
2023/10/26 09:22:52;;;;;;;27.77;10.10;;;;;;;22.33;100.00;100467.84;5012973;28;20084;-69
2023/10/26 09:25:18;;;;;;;26.92;9.90;;;;;;;22.30;100.00;100468.06;5018502;28;20512;-70
2023/10/26 09:27:45;;;;;;;19.30;8.85;;;;;;;22.19;100.00;100463.63;5006577;28;20026;-69
2023/10/26 09:30:27;;;;;;;23.70;8.60;;;;;;;22.57;100.00;100496.44;5018956;28;20026;-70
2023/10/26 09:32:52;;;;;;;21.25;9.50;;;;;;;22.39;100.00;100425.97;5017134;28;20053;-70
2023/10/26 09:35:28;;;;;;;24.23;9.60;;;;;;;22.40;100.00;100449.19;5023678;28;20071;-69
2023/10/26 09:37:53;;;;;;;23.58;9.38;;;;;;;22.68;100.00;100453.28;5022603;28;20034;-70
2023/10/26 09:40:20;;;;;;;25.45;8.82;;;;;;;22.36;100.00;100376.97;5026203;28;20026;-69
2023/10/26 09:42:50;;;;;;;25.63;9.30;;;;;;;22.57;100.00;100369.41;5021559;28;20035;-70
2023/10/26 09:45:19;;;;;;;22.65;9.77;;;;;;;22.79;100.00;100424.03;5009091;28;20033;-70
2023/10/26 09:47:46;;;;;;;25.13;9.30;;;;;;;22.34;100.00;100345.13;5010169;28;20064;-69
2023/10/26 09:50:12;;;;;;;22.77;9.82;;;;;;;22.43;100.00;100396.31;5010532;28;20479;-75
2023/10/26 09:52:39;;;;;;;28.27;10.00;;;;;;;22.68;100.00;100395.44;5011364;28;20022;-71
2023/10/26 09:55:08;;;;;;;18.20;9.57;;;;;;;22.67;100.00;100362.66;5021816;28;20028;-72
2023/10/26 09:57:35;;;;;;;19.02;9.55;;;;;;;22.74;100.00;100358.72;5002944;28;20033;-72
2023/10/26 10:00:07;;;;;;;28.58;9.07;;;;;;;22.74;100.00;100328.41;5012081;28;20103;-71
2023/10/26 10:02:32;;;;;;;25.95;9.82;;;;;;;22.50;100.00;100282.66;5019121;28;20108;-73
2023/10/26 10:04:58;;;;;;;21.02;8.77;;;;;;;22.47;100.00;100321.75;5009526;28;20131;-69
2023/10/26 10:07:43;;;;;;;19.60;8.60;;;;;;;22.44;100.00;100315.84;5011350;28;20034;-70
2023/10/26 10:10:14;;;;;;;21.63;9.00;;;;;;;22.17;100.00;100260.81;5013914;28;20026;-72
2023/10/26 10:12:42;;;;;;;23.63;9.00;;;;;;;22.63;100.00;100324.94;5020096;28;20142;-69
2023/10/26 10:15:11;;;;;;;24.02;9.55;;;;;;;22.59;100.00;100306.19;5020925;28;20034;-72
2023/10/26 10:17:46;;;;;;;19.10;9.05;;;;;;;22.90;100.00;100302.16;5016645;28;20597;-69
2023/10/26 10:20:14;;;;;;;17.35;8.68;;;;;;;22.77;100.00;100272.91;5009820;28;20022;-70
2023/10/26 10:22:40;;;;;;;19.02;7.97;;;;;;;22.81;100.00;100251.00;5019756;28;20109;-69
2023/10/26 10:25:12;;;;;;;18.92;8.13;;;;;;;22.73;100.00;100217.03;5024527;28;20156;-70
2023/10/26 10:27:38;;;;;;;19.83;8.95;;;;;;;22.57;100.00;100190.53;5009634;28;20036;-74
2023/10/26 10:30:08;;;;;;;20.17;8.45;;;;;;;22.73;100.00;100204.06;5020175;28;20022;-72
2023/10/26 10:32:42;;;;;;;26.23;9.15;;;;;;;22.97;100.00;100217.78;5008746;28;20045;-70
2023/10/26 10:35:09;;;;;;;23.38;8.45;;;;;;;22.70;100.00;100139.47;5016588;28;20029;-71
2023/10/26 10:37:36;;;;;;;21.77;8.30;;;;;;;23.33;100.00;100176.09;5010204;28;20420;-70
2023/10/26 10:40:17;;;;;;;23.65;8.48;;;;;;;22.96;100.00;100084.69;5016866;28;21206;-69
2023/10/26 10:42:48;;;;;;;20.88;8.27;;;;;;;23.09;100.00;100063.81;5019591;28;20063;-71
2023/10/26 10:45:14;;;;;;;21.67;8.25;;;;;;;22.99;100.00;100034.34;5008666;28;20038;-72
2023/10/26 10:47:41;;;;;;;17.35;7.60;;;;;;;23.28;100.00;100072.63;5017024;28;20021;-68
2023/10/26 10:50:20;;;;;;;18.98;8.23;;;;;;;23.09;100.00;99993.75;5009290;28;20088;-69
2023/10/26 10:52:53;;;;;;;18.15;7.88;;;;;;;23.14;100.00;99986.41;5016884;28;20515;-69
2023/10/26 10:55:27;;;;;;;20.27;7.55;;;;;;;23.37;100.00;99966.47;5019473;28;20083;-69
2023/10/26 10:57:55;;;;;;;33.03;18.05;;;;;;;23.69;100.00;99996.63;5015914;28;20476;-71